Time;durP1;ratioP1;P1;durP2;ratioP2;P2;SDS_P1;SDS_P2;PMS_P1;PMS_P2;Temp;Humidity;BMP_temperature;BMP_pressure;BME280_temperature;BME280_humidity;BME280_pressure;Samples;Min_cycle;Max_cycle;Signal;HPM_P1;HPM_P2
2021/06/07 00:26:32;;;;;;;6.13;4.03;;;18.20;91.30;;;;;;5042236;28;20491;-85
2021/06/07 00:29:34;;;;;;;4.93;3.87;;;18.40;92.80;;;;;;5042170;28;20539;-86
2021/06/07 00:32:38;;;;;;;4.13;3.83;;;18.30;93.00;;;;;;4993707;28;20462;-87
2021/06/07 00:40:55;;;;;;;6.60;3.73;;;17.90;92.70;;;;;;1490896;26;20479;-86
2021/06/07 00:44:13;;;;;;;;;;;;;;;;;;;;;
2021/06/07 00:47:16;;;;;;;4.23;3.93;;;17.80;93.30;;;;;;4971407;28;20469;-85
2021/06/07 00:50:12;;;;;;;4.70;3.70;;;16.20;92.60;;;;;;5030010;28;20467;-86
2021/06/07 00:53:04;;;;;;;4.57;3.80;;;19.70;96.40;;;;;;5035998;28;20473;-86
2021/06/07 01:18:23;;;;;;;4.57;4.27;;;17.40;99.90;;;;;;5570217;22;20471;-83
2021/06/07 02:40:04;;;;;;;5.87;5.37;;;17.00;99.90;;;;;;5045794;28;20829;-81
2021/06/07 02:42:30;;;;;;;6.03;5.40;;;16.30;99.90;;;;;;5041596;28;20446;-81
2021/06/07 02:44:57;;;;;;;5.67;5.17;;;16.20;99.90;;;;;;5038450;28;20498;-82
2021/06/07 02:47:23;;;;;;;5.30;4.90;;;16.20;99.90;;;;;;5037507;28;20968;-81
2021/06/07 02:49:49;;;;;;;7.90;5.30;;;16.20;99.90;;;;;;5037200;28;20470;-81
2021/06/07 02:52:15;;;;;;;5.70;5.30;;;16.20;99.90;;;;;;5042915;28;20980;-82
2021/06/07 02:54:41;;;;;;;5.93;5.33;;;16.20;99.90;;;;;;5038929;28;20496;-82
2021/06/07 02:57:09;;;;;;;6.33;5.70;;;16.10;99.90;;;;;;5038597;28;20945;-82
2021/06/07 02:59:35;;;;;;;7.40;5.20;;;16.20;99.90;;;;;;5038318;28;20509;-82
2021/06/07 03:02:01;;;;;;;7.73;5.33;;;16.10;99.90;;;;;;5039372;28;20793;-81
2021/06/07 03:04:27;;;;;;;6.73;6.03;;;16.00;99.90;;;;;;5038713;28;20474;-82
2021/06/07 03:06:53;;;;;;;10.50;5.93;;;16.00;99.90;;;;;;5043678;28;20454;-81
2021/06/07 03:09:19;;;;;;;5.10;4.70;;;16.00;99.90;;;;;;5038323;28;20563;-82
2021/06/07 03:11:46;;;;;;;6.43;5.93;;;16.10;99.90;;;;;;5037625;28;20508;-83
2021/06/07 03:14:13;;;;;;;6.13;5.47;;;16.10;99.90;;;;;;5037745;28;20476;-82
2021/06/07 03:16:39;;;;;;;6.10;5.50;;;16.00;99.90;;;;;;5037730;28;20482;-82
2021/06/07 03:19:05;;;;;;;6.47;5.83;;;16.00;99.90;;;;;;5037444;28;20478;-82
2021/06/07 03:21:32;;;;;;;8.70;6.10;;;16.00;99.90;;;;;;5037137;28;20450;-82
2021/06/07 03:23:58;;;;;;;5.25;4.75;;;16.00;99.90;;;;;;5037246;28;20441;-82
2021/06/07 03:26:26;;;;;;;6.70;6.13;;;15.90;99.90;;;;;;5037504;28;20226;-83
2021/06/07 03:28:52;;;;;;;6.37;5.40;;;15.90;99.90;;;;;;5037418;28;20473;-82
2021/06/07 03:31:19;;;;;;;11.00;8.13;;;15.90;99.90;;;;;;5037335;28;20457;-82
2021/06/07 03:33:45;;;;;;;6.37;5.77;;;16.00;99.90;;;;;;5036959;28;20817;-81
2021/06/07 03:36:12;;;;;;;6.00;5.60;;;16.10;99.90;;;;;;5039134;28;20764;-82
2021/06/07 03:38:38;;;;;;;9.00;5.50;;;16.00;99.90;;;;;;5052282;28;20486;-80
2021/06/07 03:41:05;;;;;;;6.70;6.00;;;16.00;99.90;;;;;;5039330;28;20458;-81
2021/06/07 03:43:33;;;;;;;5.13;4.72;;;16.00;99.90;;;;;;5037213;28;20441;-83
2021/06/07 03:46:00;;;;;;;6.53;5.93;;;16.00;99.90;;;;;;5039238;28;20196;-81
2021/06/07 03:48:28;;;;;;;7.53;5.30;;;15.90;99.90;;;;;;5037200;28;20467;-82
2021/06/07 03:50:55;;;;;;;6.93;5.13;;;15.90;99.90;;;;;;5037404;28;20462;-82
2021/06/07 03:53:21;;;;;;;6.70;6.07;;;15.90;99.90;;;;;;5037722;28;20473;-82
2021/06/07 03:55:47;;;;;;;6.10;5.60;;;16.10;99.90;;;;;;5038166;28;20490;-81
2021/06/07 03:58:14;;;;;;;8.73;5.87;;;16.10;99.90;;;;;;5036278;28;21050;-82
2021/06/07 04:00:41;;;;;;;5.33;4.83;;;16.00;99.90;;;;;;5036691;28;20501;-81
2021/06/07 04:03:10;;;;;;;5.87;5.23;;;16.10;99.90;;;;;;5036629;28;20467;-83
2021/06/07 04:05:39;;;;;;;8.10;5.37;;;16.10;99.90;;;;;;5037696;28;20446;-82
2021/06/07 04:08:07;;;;;;;6.63;5.47;;;16.20;99.90;;;;;;5041596;28;20771;-80
2021/06/07 04:10:33;;;;;;;5.20;4.80;;;16.10;99.90;;;;;;5049898;28;20442;-81
2021/06/07 04:12:59;;;;;;;5.40;4.50;;;16.10;99.90;;;;;;5049352;28;20433;-81
2021/06/07 04:15:27;;;;;;;5.60;5.20;;;16.20;99.90;;;;;;5050518;28;20207;-81
2021/06/07 04:17:59;;;;;;;6.87;5.73;;;16.30;99.90;;;;;;5046154;28;20487;-82
2021/06/07 04:20:27;;;;;;;6.10;5.20;;;16.30;99.90;;;;;;5041464;28;20461;-81
2021/06/07 04:22:55;;;;;;;6.20;5.60;;;16.20;99.90;;;;;;5035148;28;20457;-81
2021/06/07 04:25:23;;;;;;;5.77;5.27;;;16.30;99.90;;;;;;5035197;28;20454;-81
2021/06/07 04:27:50;;;;;;;5.57;5.00;;;16.30;99.90;;;;;;5043055;28;20473;-80
2021/06/07 04:30:18;;;;;;;5.70;5.10;;;16.30;99.90;;;;;;5050490;28;20454;-82
2021/06/07 04:32:46;;;;;;;8.77;4.80;;;16.30;99.90;;;;;;5037393;28;20446;-81
2021/06/07 04:35:14;;;;;;;5.17;4.77;;;16.40;99.90;;;;;;5041623;28;20454;-82
2021/06/07 04:37:43;;;;;;;9.53;5.87;;;16.70;99.90;;;;;;5036629;28;20451;-82
2021/06/07 04:40:12;;;;;;;7.83;6.07;;;16.50;99.90;;;;;;5037711;28;20438;-82
2021/06/07 04:42:39;;;;;;;5.67;5.17;;;16.50;99.90;;;;;;5038039;28;20522;-82
2021/06/07 04:45:06;;;;;;;8.40;5.03;;;16.60;99.90;;;;;;5040472;28;20446;-82
2021/06/07 04:47:33;;;;;;;9.37;6.60;;;16.60;99.90;;;;;;5041730;28;20510;-81
2021/06/07 04:49:59;;;;;;;11.03;9.53;;;16.60;99.90;;;;;;5041702;28;20451;-81
2021/06/07 04:52:25;;;;;;;6.23;4.70;;;16.60;99.90;;;;;;5040787;28;20481;-82
2021/06/07 04:54:51;;;;;;;5.30;4.40;;;16.70;99.90;;;;;;5040776;28;20482;-82
2021/06/07 04:57:19;;;;;;;9.70;5.53;;;16.80;99.90;;;;;;5040432;28;20450;-82
2021/06/07 04:59:45;;;;;;;4.70;4.37;;;16.90;99.90;;;;;;5040182;28;20470;-82
2021/06/07 05:02:11;;;;;;;5.37;4.73;;;16.90;99.90;;;;;;5058187;28;20431;-82
2021/06/07 05:04:37;;;;;;;4.73;4.23;;;17.00;99.90;;;;;;5061129;28;20446;-82
2021/06/07 05:07:04;;;;;;;5.80;4.40;;;17.00;99.90;;;;;;5046649;28;20447;-82
2021/06/07 05:09:30;;;;;;;5.23;4.83;;;17.10;99.90;;;;;;5041105;28;20469;-81
2021/06/07 05:11:56;;;;;;;11.27;4.73;;;17.20;99.90;;;;;;5040468;28;20443;-82
2021/06/07 05:14:24;;;;;;;11.23;7.90;;;17.30;99.90;;;;;;5041552;28;20446;-82
2021/06/07 05:16:50;;;;;;;5.60;5.10;;;17.30;99.90;;;;;;5042701;28;20493;-82
2021/06/07 05:19:16;;;;;;;4.70;3.90;;;17.40;99.90;;;;;;5040630;28;20507;-82
2021/06/07 05:21:42;;;;;;;5.00;4.07;;;17.20;99.90;;;;;;5039827;28;20445;-82
2021/06/07 05:24:08;;;;;;;5.10;3.60;;;17.30;99.90;;;;;;5039866;28;20475;-82
2021/06/07 05:26:34;;;;;;;5.60;5.10;;;17.40;99.90;;;;;;5040388;28;20446;-82
2021/06/07 05:29:00;;;;;;;6.30;4.60;;;17.40;99.90;;;;;;5050456;28;20462;-82
2021/06/07 05:31:28;;;;;;;6.87;4.50;;;17.50;99.90;;;;;;5053776;28;20447;-82
2021/06/07 05:33:54;;;;;;;4.90;4.43;;;17.60;99.90;;;;;;5054313;28;20450;-82
2021/06/07 05:36:20;;;;;;;5.10;4.33;;;17.60;99.90;;;;;;5049987;28;20448;-82
2021/06/07 05:38:46;;;;;;;5.27;4.80;;;17.50;99.90;;;;;;5057298;28;20471;-82
2021/06/07 05:41:12;;;;;;;6.57;4.37;;;17.50;99.90;;;;;;5059609;28;20436;-82
2021/06/07 05:43:38;;;;;;;6.60;4.40;;;17.70;99.90;;;;;;5059417;28;20470;-82
2021/06/07 05:46:04;;;;;;;4.90;4.40;;;17.80;99.90;;;;;;5059673;28;20797;-82
2021/06/07 05:48:32;;;;;;;4.90;4.60;;;17.90;99.90;;;;;;5058823;28;20485;-82
2021/06/07 05:50:58;;;;;;;4.43;4.03;;;18.00;99.90;;;;;;5060068;28;20458;-82
2021/06/07 05:53:24;;;;;;;4.93;4.50;;;18.30;99.90;;;;;;5059602;28;20459;-82
2021/06/07 05:55:50;;;;;;;4.50;3.90;;;18.10;99.90;;;;;;5058565;28;20489;-82
2021/06/07 05:58:18;;;;;;;5.80;4.63;;;18.10;99.90;;;;;;5057394;28;20483;-82
2021/06/07 06:00:47;;;;;;;9.23;4.80;;;18.00;99.90;;;;;;5043792;28;20456;-83
2021/06/07 06:03:14;;;;;;;5.37;3.97;;;18.00;99.90;;;;;;5041812;28;20487;-82
2021/06/07 06:05:43;;;;;;;4.40;3.83;;;18.00;99.90;;;;;;5040408;28;20447;-82
2021/06/07 06:08:10;;;;;;;6.27;4.33;;;18.20;99.90;;;;;;5042392;28;20465;-82
2021/06/07 06:10:37;;;;;;;5.03;4.33;;;18.20;99.90;;;;;;5042106;28;20455;-82
2021/06/07 06:13:04;;;;;;;5.03;4.57;;;18.60;99.90;;;;;;5041937;28;20452;-82
2021/06/07 06:15:30;;;;;;;4.53;4.23;;;18.80;99.90;;;;;;5041229;28;20939;-82
2021/06/07 06:17:56;;;;;;;7.60;4.10;;;18.80;99.90;;;;;;5042670;28;20895;-81
2021/06/07 06:20:25;;;;;;;6.43;4.63;;;18.80;99.90;;;;;;5050317;28;20444;-81
2021/06/07 06:22:53;;;;;;;4.40;3.80;;;18.70;99.90;;;;;;5044369;28;20448;-82
2021/06/07 06:25:20;;;;;;;4.10;3.57;;;18.80;99.90;;;;;;5042203;28;20528;-81
2021/06/07 06:27:47;;;;;;;4.37;4.07;;;18.80;99.90;;;;;;5052364;28;20453;-81
2021/06/07 06:30:16;;;;;;;7.13;4.07;;;19.00;99.90;;;;;;5051574;28;20460;-82
2021/06/07 06:32:44;;;;;;;4.77;3.67;;;19.10;99.90;;;;;;5050730;28;20430;-82
2021/06/07 06:35:12;;;;;;;4.77;4.00;;;19.10;99.90;;;;;;5055414;28;20445;-82
2021/06/07 06:40:18;;;;;;;6.03;4.23;;;19.20;99.90;;;;;;5052492;28;20820;-82
2021/06/07 06:42:44;;;;;;;4.27;3.87;;;19.10;99.90;;;;;;5051498;28;20440;-82
2021/06/07 06:45:12;;;;;;;7.13;4.00;;;19.20;99.90;;;;;;5050938;28;20501;-82
2021/06/07 06:47:39;;;;;;;6.10;4.70;;;19.70;99.90;;;;;;5051430;28;20447;-83
2021/06/07 06:50:06;;;;;;;5.50;3.80;;;19.30;99.90;;;;;;5074719;22;20511;-85
2021/06/07 06:52:33;;;;;;;7.40;4.90;;;19.20;99.90;;;;;;5037246;28;20475;-85
2021/06/07 06:54:59;;;;;;;8.23;5.07;;;19.40;99.90;;;;;;5036444;28;20458;-85
2021/06/07 06:57:26;;;;;;;4.63;3.90;;;19.40;99.90;;;;;;5037077;28;20449;-86
2021/06/07 06:59:53;;;;;;;4.20;3.80;;;19.30;99.90;;;;;;5037736;28;20477;-86
2021/06/07 07:02:21;;;;;;;4.87;3.77;;;19.40;99.90;;;;;;5038146;28;20995;-86
2021/06/07 07:04:47;;;;;;;6.13;4.00;;;19.50;99.90;;;;;;5037671;28;20448;-86
2021/06/07 07:07:13;;;;;;;5.60;4.47;;;19.50;99.90;;;;;;5039891;28;20449;-86
2021/06/07 07:09:42;;;;;;;4.37;4.00;;;19.50;99.90;;;;;;5038719;28;20445;-86
2021/06/07 07:12:11;;;;;;;8.30;7.50;;;19.50;99.90;;;;;;5059629;23;20900;-85
2021/06/07 07:14:53;;;;;;;10.23;4.40;;;19.50;99.90;;;;;;5042189;28;20936;-85
2021/06/07 07:17:28;;;;;;;4.33;3.93;;;;;;;;;;5042863;28;20927;-85
2021/06/07 07:19:55;;;;;;;7.00;4.50;;;;;;;;;;5042497;28;20837;-85
2021/06/07 07:22:25;;;;;;;5.50;4.80;;;19.80;99.90;;;;;;5042885;28;20479;-85
2021/06/07 07:24:56;;;;;;;4.77;4.37;;;;;;;;;;5054512;28;20461;-86
2021/06/07 07:27:26;;;;;;;6.47;4.47;;;;;;;;;;5056577;28;20442;-85
2021/06/07 07:30:08;;;;;;;;;;;;;;;;;;;;;
2021/06/07 07:32:57;;;;;;;4.60;4.23;;;20.30;99.90;;;;;;5011575;28;20510;-85
2021/06/07 07:35:50;;;;;;;7.10;5.03;;;18.70;99.90;;;;;;5053656;28;20453;-85
2021/06/07 07:38:29;;;;;;;4.77;4.33;;;19.80;99.90;;;;;;5031583;28;21026;-85
2021/06/07 07:41:11;;;;;;;5.67;5.07;;;20.80;99.90;;;;;;5039163;28;20549;-85
2021/06/07 07:44:03;;;;;;;4.73;4.20;;;22.90;99.90;;;;;;5041232;28;20898;-86
2021/06/07 07:46:32;;;;;;;4.00;3.70;;;19.20;99.90;;;;;;5037784;28;20445;-84
2021/06/07 07:52:25;;;;;;;4.30;3.97;;;19.40;99.90;;;;;;5000370;28;20494;-85
2021/06/07 07:55:24;;;;;;;8.00;4.97;;;20.80;99.90;;;;;;5037417;28;20954;-85
2021/06/07 07:58:07;;;;;;;6.50;4.67;;;20.80;99.90;;;;;;5038122;28;20441;-85
2021/06/07 08:01:00;;;;;;;8.10;3.80;;;20.30;99.90;;;;;;5037645;28;20482;-85
2021/06/07 08:04:24;;;;;;;15.17;4.90;;;20.60;99.90;;;;;;5037375;28;20438;-85
2021/06/07 08:07:07;;;;;;;9.70;3.97;;;20.20;99.90;;;;;;5036536;28;20485;-85
2021/06/07 08:10:00;;;;;;;4.00;3.70;;;20.70;99.90;;;;;;5036617;28;20848;-85
2021/06/07 08:22:36;;;;;;;5.60;4.20;;;21.10;99.90;;;;;;4876783;29;20458;-85
2021/06/07 08:25:04;;;;;;;8.30;4.33;;;23.20;99.90;;;;;;4930205;29;20464;-85
2021/06/07 08:27:31;;;;;;;9.43;4.10;;;;;;;;;;5031778;28;20449;-85
2021/06/07 08:29:57;;;;;;;8.83;4.90;;;;;;;;;;5047661;28;20465;-85
2021/06/07 08:32:25;;;;;;;5.20;4.07;;;21.30;99.90;;;;;;5047092;28;20447;-84
2021/06/07 08:34:51;;;;;;;6.70;4.60;;;21.60;99.90;;;;;;5049713;28;20446;-84
2021/06/07 08:37:20;;;;;;;5.03;4.53;;;21.50;99.90;;;;;;5046276;28;20453;-83
2021/06/07 08:39:48;;;;;;;5.10;4.17;;;21.60;99.90;;;;;;5046661;28;20478;-84
2021/06/07 08:42:16;;;;;;;6.17;4.50;;;21.50;99.90;;;;;;5048114;28;20462;-84
2021/06/07 08:44:43;;;;;;;5.10;4.70;;;21.40;99.90;;;;;;5043805;28;20526;-85
2021/06/07 08:47:09;;;;;;;9.80;5.50;;;21.50;99.90;;;;;;5040189;28;20466;-85
2021/06/07 08:49:36;;;;;;;5.93;3.73;;;21.60;99.90;;;;;;5040673;28;20434;-85
2021/06/07 08:52:02;;;;;;;4.30;3.73;;;21.60;99.90;;;;;;5039893;28;20500;-85
2021/06/07 08:54:30;;;;;;;5.00;4.50;;;21.70;99.90;;;;;;5038491;28;20439;-85
2021/06/07 08:56:57;;;;;;;5.20;4.80;;;21.90;99.90;;;;;;5037895;28;20538;-85
2021/06/07 08:59:23;;;;;;;4.73;4.30;;;22.00;99.90;;;;;;5036600;28;20486;-85
2021/06/07 09:01:54;;;;;;;5.70;4.50;;;22.10;99.90;;;;;;5037166;28;20463;-85
2021/06/07 09:04:23;;;;;;;7.90;4.60;;;22.10;99.90;;;;;;5036485;28;20434;-85
2021/06/07 09:06:50;;;;;;;3.83;3.53;;;22.10;99.90;;;;;;5037574;28;20447;-85
2021/06/07 09:09:19;;;;;;;4.87;4.37;;;22.20;99.90;;;;;;5037482;28;20453;-85
2021/06/07 09:11:50;;;;;;;5.77;4.80;;;22.20;99.90;;;;;;5036438;28;20984;-85
2021/06/07 09:14:20;;;;;;;5.33;4.03;;;22.30;99.90;;;;;;5036118;28;20905;-84
2021/06/07 09:16:46;;;;;;;5.70;4.60;;;22.40;99.90;;;;;;5037243;28;20801;-85
2021/06/07 09:19:21;;;;;;;4.00;3.70;;;22.50;99.90;;;;;;5036109;28;20497;-85
2021/06/07 09:21:48;;;;;;;5.30;4.80;;;22.60;99.90;;;;;;5035825;28;20496;-85
2021/06/07 09:24:14;;;;;;;4.37;4.07;;;22.30;99.90;;;;;;5035761;28;20481;-85
2021/06/07 09:26:43;;;;;;;4.00;3.70;;;22.20;99.40;;;;;;5035785;28;20824;-85
2021/06/07 09:29:14;;;;;;;4.53;4.13;;;22.30;99.90;;;;;;5036772;28;20449;-85
2021/06/07 09:31:43;;;;;;;5.53;3.90;;;22.50;99.90;;;;;;5039288;28;20810;-85
2021/06/07 09:34:11;;;;;;;5.03;4.60;;;22.60;99.10;;;;;;5039841;28;20951;-85
2021/06/07 09:36:39;;;;;;;6.10;4.20;;;22.70;99.30;;;;;;5041241;28;20434;-86
2021/06/07 09:39:15;;;;;;;4.20;3.83;;;22.70;97.20;;;;;;5039788;28;20486;-85
2021/06/07 09:42:00;;;;;;;6.07;3.70;;;22.70;99.20;;;;;;5039518;28;20513;-86
2021/06/07 09:44:33;;;;;;;5.77;3.90;;;22.80;98.40;;;;;;5039259;28;20435;-86
2021/06/07 09:47:19;;;;;;;5.97;4.30;;;22.90;99.00;;;;;;5039457;28;20435;-86
2021/06/07 09:49:47;;;;;;;5.57;4.73;;;23.00;98.90;;;;;;5039670;28;20435;-86
2021/06/07 09:52:17;;;;;;;5.70;4.80;;;23.10;98.30;;;;;;5038535;28;20463;-86
2021/06/07 09:54:44;;;;;;;10.77;4.27;;;23.20;97.70;;;;;;5040030;28;20489;-86
2021/06/07 09:57:10;;;;;;;4.33;3.93;;;23.10;96.80;;;;;;5041119;28;20444;-86
2021/06/07 09:59:38;;;;;;;7.10;6.40;;;23.10;98.50;;;;;;5043249;28;20464;-85
2021/06/07 10:02:15;;;;;;;4.40;4.00;;;23.30;96.00;;;;;;5041331;28;20818;-85
2021/06/07 10:04:50;;;;;;;3.87;3.47;;;23.20;93.80;;;;;;5041599;28;20905;-85
2021/06/07 10:07:16;;;;;;;5.60;4.50;;;23.30;96.20;;;;;;5047344;28;20463;-84
2021/06/07 10:10:07;;;;;;;6.50;4.47;;;23.30;93.60;;;;;;5047898;28;20444;-84
2021/06/07 10:12:34;;;;;;;7.17;4.00;;;23.40;93.90;;;;;;5045594;28;20424;-84
2021/06/07 10:15:00;;;;;;;6.97;3.53;;;23.50;94.10;;;;;;5044828;28;20448;-84
2021/06/07 10:17:26;;;;;;;4.27;3.87;;;23.60;94.40;;;;;;5049405;28;20446;-83
2021/06/07 10:20:46;;;;;;;5.03;3.00;;;23.60;94.10;;;;;;5045958;28;20598;-85
2021/06/07 10:22:46;;;;;;;8.30;4.20;;;23.50;94.50;;;;;;5041102;28;20446;-85
2021/06/07 10:25:13;;;;;;;9.93;5.20;;;23.50;95.10;;;;;;5040623;28;20455;-85
2021/06/07 10:27:39;;;;;;;5.63;3.90;;;23.40;96.50;;;;;;5040853;28;20935;-85
2021/06/07 10:30:15;;;;;;;4.60;4.20;;;23.50;93.20;;;;;;5041417;28;20448;-85
2021/06/07 10:32:41;;;;;;;5.87;4.00;;;23.70;94.80;;;;;;5042049;28;20434;-86
2021/06/07 10:35:10;;;;;;;4.53;4.13;;;23.70;93.90;;;;;;5045018;28;20479;-85
2021/06/07 10:38:04;;;;;;;4.53;4.10;;;23.80;93.30;;;;;;5054566;28;20464;-84
2021/06/07 10:40:31;;;;;;;6.03;4.50;;;23.80;91.60;;;;;;5044235;28;20549;-85
2021/06/07 10:42:58;;;;;;;4.70;4.30;;;23.80;92.30;;;;;;5041487;28;20502;-85
2021/06/07 10:45:27;;;;;;;4.10;3.70;;;23.90;91.90;;;;;;5041625;28;20833;-85
2021/06/07 10:47:54;;;;;;;6.97;4.07;;;23.80;93.10;;;;;;5041261;28;20475;-85
2021/06/07 10:50:25;;;;;;;4.27;3.97;;;23.80;92.50;;;;;;5041676;28;20465;-85
2021/06/07 10:52:54;;;;;;;5.40;4.90;;;23.90;93.30;;;;;;5041044;28;20432;-85
2021/06/07 10:55:24;;;;;;;4.23;3.90;;;23.90;94.60;;;;;;5040220;28;20436;-86
2021/06/07 10:57:53;;;;;;;4.60;3.73;;;24.00;95.50;;;;;;5042295;28;20819;-85
2021/06/07 11:00:24;;;;;;;3.97;3.67;;;24.10;91.60;;;;;;5044697;28;20513;-85
2021/06/07 11:02:53;;;;;;;4.20;3.80;;;24.20;93.00;;;;;;5040754;28;20436;-85
2021/06/07 11:05:23;;;;;;;4.03;3.73;;;24.30;91.30;;;;;;5042643;28;20507;-86
2021/06/07 11:08:05;;;;;;;4.23;3.83;;;24.40;89.20;;;;;;5041715;28;20440;-85
2021/06/07 11:10:33;;;;;;;4.00;3.70;;;24.40;92.10;;;;;;5042539;28;20483;-85
2021/06/07 11:13:02;;;;;;;5.27;4.27;;;24.50;90.80;;;;;;5042083;28;20849;-85
2021/06/07 11:15:30;;;;;;;6.77;4.30;;;23.80;89.20;;;;;;5041531;28;20444;-85
2021/06/07 11:18:29;;;;;;;4.43;3.97;;;24.60;90.80;;;;;;5041644;28;20930;-85
2021/06/07 11:21:00;;;;;;;4.40;4.10;;;24.60;87.70;;;;;;5041261;28;20469;-84
2021/06/07 11:23:37;;;;;;;5.17;3.80;;;24.60;90.60;;;;;;5045263;28;20935;-84
2021/06/07 11:26:05;;;;;;;4.20;3.90;;;24.70;85.70;;;;;;5041997;28;20431;-85
2021/06/07 11:28:45;;;;;;;3.63;3.33;;;24.80;87.80;;;;;;5041786;28;20449;-84
2021/06/07 11:31:53;;;;;;;3.83;3.53;;;24.80;85.90;;;;;;5043506;28;20474;-84
2021/06/07 11:34:45;;;;;;;4.13;3.83;;;24.70;87.70;;;;;;5041681;28;20442;-84
2021/06/07 11:37:17;;;;;;;3.90;3.50;;;24.80;87.50;;;;;;5040701;28;20532;-84
2021/06/07 11:39:52;;;;;;;5.77;4.20;;;24.90;87.70;;;;;;5039722;28;20478;-84
2021/06/07 11:42:20;;;;;;;4.23;3.83;;;25.00;87.40;;;;;;5041046;28;20475;-84
2021/06/07 11:44:51;;;;;;;4.97;4.47;;;25.00;84.50;;;;;;5040912;28;20468;-85
2021/06/07 11:47:19;;;;;;;4.60;3.83;;;25.00;83.40;;;;;;5040992;28;20435;-84
2021/06/07 11:50:12;;;;;;;3.73;3.40;;;25.00;83.40;;;;;;5042543;28;20456;-85
2021/06/07 11:52:52;;;;;;;6.70;3.80;;;24.90;86.60;;;;;;5045307;28;20474;-84
2021/06/07 11:55:26;;;;;;;4.30;3.90;;;25.00;83.80;;;;;;5040856;28;20437;-84
2021/06/07 11:57:52;;;;;;;8.03;4.60;;;25.10;81.30;;;;;;5040913;28;20433;-85
2021/06/07 12:00:20;;;;;;;3.73;3.53;;;25.10;82.20;;;;;;5044947;28;20490;-85
2021/06/07 12:02:46;;;;;;;4.13;3.83;;;25.10;80.60;;;;;;5046822;28;20439;-84
2021/06/07 12:05:15;;;;;;;3.90;3.60;;;25.20;83.60;;;;;;5051702;28;20643;-84
2021/06/07 12:07:45;;;;;;;6.20;3.80;;;25.00;77.60;;;;;;5050939;28;20429;-84
2021/06/07 12:10:15;;;;;;;4.50;3.30;;;25.00;78.00;;;;;;5050699;28;20442;-84
2021/06/07 12:12:42;;;;;;;4.20;3.50;;;25.10;77.70;;;;;;5047876;28;20434;-84
2021/06/07 12:15:10;;;;;;;5.23;4.20;;;25.00;80.20;;;;;;5047103;28;20456;-84
2021/06/07 12:17:42;;;;;;;3.40;3.20;;;25.20;81.30;;;;;;5049437;28;20472;-84
2021/06/07 12:20:10;;;;;;;4.40;4.00;;;24.90;87.80;;;;;;5047021;28;20477;-84
2021/06/07 12:22:38;;;;;;;4.50;3.50;;;25.30;81.00;;;;;;5046869;28;20455;-84
2021/06/07 12:25:19;;;;;;;5.30;4.20;;;25.30;79.60;;;;;;5044979;28;20861;-84
2021/06/07 12:30:33;;;;;;;4.07;3.77;;;25.40;76.10;;;;;;5045031;28;20450;-84
2021/06/07 12:32:59;;;;;;;4.47;4.10;;;25.60;76.00;;;;;;5043871;28;20439;-85
2021/06/07 12:35:27;;;;;;;7.23;4.53;;;25.50;77.80;;;;;;5042254;28;20442;-85
2021/06/07 12:37:56;;;;;;;4.27;3.90;;;25.50;80.30;;;;;;5039591;28;20457;-85
2021/06/07 12:40:26;;;;;;;3.73;3.43;;;25.40;75.60;;;;;;5040681;28;20510;-84
2021/06/07 12:42:56;;;;;;;3.30;3.00;;;25.50;72.10;;;;;;5040759;28;20446;-84
2021/06/07 12:45:25;;;;;;;4.70;3.70;;;25.50;76.40;;;;;;5046341;28;20528;-83
2021/06/07 12:47:52;;;;;;;3.27;3.07;;;25.50;69.60;;;;;;5042090;28;20438;-84
2021/06/07 12:50:22;;;;;;;4.10;3.80;;;25.60;72.70;;;;;;5042555;28;20489;-84
2021/06/07 12:52:53;;;;;;;4.70;3.73;;;25.70;72.60;;;;;;5024478;28;20522;-84
2021/06/07 12:55:22;;;;;;;3.57;3.37;;;25.80;73.20;;;;;;5041275;28;20434;-85
2021/06/07 12:57:49;;;;;;;6.30;4.10;;;25.80;77.20;;;;;;5040200;28;20446;-85
2021/06/07 13:00:29;;;;;;;4.07;3.77;;;25.80;70.80;;;;;;5039445;28;20479;-84
2021/06/07 13:02:56;;;;;;;4.60;3.60;;;25.80;76.00;;;;;;5042863;28;20515;-85
2021/06/07 13:05:27;;;;;;;5.67;4.97;;;25.90;73.50;;;;;;5044502;28;20439;-84
2021/06/07 13:08:14;;;;;;;5.00;3.70;;;26.00;70.20;;;;;;5044147;28;20422;-84
2021/06/07 13:10:43;;;;;;;4.40;4.10;;;26.10;74.60;;;;;;5043717;28;20496;-84
2021/06/07 13:13:25;;;;;;;4.30;3.87;;;26.10;76.20;;;;;;5044939;28;20963;-84
2021/06/07 13:16:11;;;;;;;4.80;3.70;;;26.10;71.80;;;;;;5044553;28;20439;-84
2021/06/07 13:19:01;;;;;;;6.80;3.90;;;26.00;66.80;;;;;;5045264;28;20434;-85
2021/06/07 13:21:46;;;;;;;4.43;3.60;;;26.10;68.90;;;;;;5043177;28;20548;-85
2021/06/07 13:24:14;;;;;;;6.77;5.07;;;26.10;68.40;;;;;;5043564;28;20434;-85
2021/06/07 13:26:44;;;;;;;4.37;3.97;;;26.00;69.70;;;;;;5062501;22;20497;-80
2021/06/07 13:29:26;;;;;;;4.57;3.60;;;26.10;71.70;;;;;;5050202;28;20472;-79
2021/06/07 13:32:10;;;;;;;7.90;3.80;;;26.00;67.40;;;;;;5051826;28;20422;-81
2021/06/07 13:34:41;;;;;;;4.17;3.50;;;26.00;60.70;;;;;;5052248;28;20426;-82
2021/06/07 13:37:13;;;;;;;8.33;4.53;;;26.00;63.60;;;;;;5050998;28;20469;-83
2021/06/07 13:39:41;;;;;;;4.00;3.20;;;26.00;64.70;;;;;;5050134;28;20470;-81
2021/06/07 13:42:09;;;;;;;5.67;5.27;;;26.10;69.70;;;;;;5051868;28;20498;-82
2021/06/07 13:44:53;;;;;;;4.47;4.17;;;26.30;67.40;;;;;;5049541;28;20431;-82
2021/06/07 13:47:23;;;;;;;14.93;4.83;;;26.30;67.20;;;;;;5045386;28;20411;-82
2021/06/07 13:50:15;;;;;;;4.80;4.40;;;26.20;63.90;;;;;;5047260;28;20513;-82
2021/06/07 13:52:45;;;;;;;9.10;5.17;;;26.30;70.10;;;;;;5033414;28;20476;-81
2021/06/07 13:55:21;;;;;;;4.67;4.27;;;26.30;67.10;;;;;;5047888;28;20485;-81
2021/06/07 13:58:03;;;;;;;8.27;4.10;;;26.30;64.10;;;;;;5053259;28;20893;-80
2021/06/07 14:00:32;;;;;;;3.80;3.40;;;26.30;65.90;;;;;;5052005;28;20498;-81
2021/06/07 14:02:59;;;;;;;5.30;4.90;;;26.40;65.20;;;;;;5049227;28;20964;-81
2021/06/07 14:05:28;;;;;;;4.07;3.70;;;26.40;70.80;;;;;;5052383;28;20466;-81
2021/06/07 14:07:54;;;;;;;5.00;3.27;;;26.30;60.00;;;;;;5051507;28;20832;-80
2021/06/07 14:10:20;;;;;;;5.17;4.77;;;26.30;62.30;;;;;;5051088;28;20450;-81
2021/06/07 14:12:48;;;;;;;4.50;4.10;;;26.10;62.60;;;;;;5050330;28;20447;-80
2021/06/07 14:15:16;;;;;;;4.77;4.30;;;26.50;63.00;;;;;;5050525;28;20459;-81
2021/06/07 14:17:42;;;;;;;5.13;4.70;;;26.50;66.70;;;;;;5047036;28;20454;-81
2021/06/07 14:20:11;;;;;;;6.30;5.00;;;26.50;64.10;;;;;;5049336;28;20475;-82
2021/06/07 14:25:22;;;;;;;5.90;4.80;;;26.40;66.50;;;;;;5050416;28;20481;-79
2021/06/07 14:27:49;;;;;;;6.27;5.77;;;26.50;67.50;;;;;;5049190;28;20457;-82
2021/06/07 14:30:16;;;;;;;8.10;6.30;;;26.50;70.00;;;;;;5050548;28;20446;-81
2021/06/07 14:32:43;;;;;;;10.77;4.37;;;26.50;70.00;;;;;;5050032;28;20450;-80
2021/06/07 14:35:11;;;;;;;5.57;5.03;;;26.50;63.60;;;;;;5049974;28;20481;-80
2021/06/07 14:37:37;;;;;;;5.10;4.30;;;26.50;63.40;;;;;;5049897;28;20447;-80
2021/06/07 14:40:05;;;;;;;4.60;4.30;;;26.50;66.40;;;;;;5050252;28;20494;-82
2021/06/07 14:42:31;;;;;;;5.37;4.90;;;26.60;67.40;;;;;;5051396;28;20455;-81
2021/06/07 14:44:57;;;;;;;3.47;3.30;;;26.60;69.70;;;;;;5051939;28;20439;-80
2021/06/07 14:47:23;;;;;;;5.80;4.70;;;26.60;68.50;;;;;;5050416;28;20951;-82
2021/06/07 14:49:49;;;;;;;8.53;3.83;;;26.50;65.30;;;;;;5052571;28;20457;-80
2021/06/07 14:52:17;;;;;;;6.67;3.70;;;26.40;62.50;;;;;;5051078;28;20469;-80
2021/06/07 14:54:43;;;;;;;11.17;9.43;;;26.40;62.50;;;;;;5052390;28;20528;-81
2021/06/07 14:57:10;;;;;;;8.20;4.83;;;26.40;69.10;;;;;;5049998;28;20553;-80
2021/06/07 14:59:37;;;;;;;10.33;5.07;;;26.40;63.60;;;;;;5051123;28;20478;-81
2021/06/07 15:02:04;;;;;;;5.73;4.33;;;26.50;68.10;;;;;;5049466;28;20465;-83
2021/06/07 15:04:30;;;;;;;18.87;5.40;;;26.50;62.10;;;;;;5050277;28;20447;-82
2021/06/07 15:06:56;;;;;;;7.97;5.00;;;26.50;67.30;;;;;;5045485;28;20470;-82
2021/06/07 15:09:24;;;;;;;4.70;4.30;;;26.60;66.30;;;;;;5043256;28;20472;-81
2021/06/07 15:11:50;;;;;;;4.60;4.20;;;26.70;66.80;;;;;;5043201;28;20512;-82
2021/06/07 15:14:16;;;;;;;4.73;4.43;;;26.60;65.80;;;;;;5043234;28;20446;-81
2021/06/07 15:16:42;;;;;;;7.10;4.27;;;26.50;65.70;;;;;;5041711;28;20836;-82
2021/06/07 15:19:08;;;;;;;5.83;5.27;;;26.50;62.60;;;;;;5042691;28;20497;-82
2021/06/07 15:21:35;;;;;;;4.50;4.13;;;26.50;63.10;;;;;;5045199;28;20478;-82
2021/06/07 15:24:03;;;;;;;4.40;4.10;;;26.40;63.50;;;;;;5048901;28;20453;-81
2021/06/07 15:26:31;;;;;;;5.20;4.50;;;26.50;61.00;;;;;;5051854;28;20478;-80
2021/06/07 15:28:57;;;;;;;6.20;5.60;;;26.40;60.70;;;;;;5051059;28;20438;-81
2021/06/07 15:31:23;;;;;;;5.17;4.20;;;26.50;63.10;;;;;;5041757;28;20476;-81
2021/06/07 15:33:49;;;;;;;4.00;3.70;;;26.50;59.80;;;;;;5040761;28;20819;-82
2021/06/07 15:36:15;;;;;;;4.63;4.23;;;26.40;60.30;;;;;;5043375;28;20470;-81
2021/06/07 15:38:43;;;;;;;8.97;5.00;;;26.40;65.70;;;;;;5041369;28;20538;-82
2021/06/07 15:41:15;;;;;;;5.73;5.27;;;26.40;61.30;;;;;;5042092;28;20436;-82
2021/06/07 15:43:44;;;;;;;10.33;6.47;;;26.50;67.50;;;;;;5051367;28;20446;-81